sensor_id;sensor_type;location;lat;lon;timestamp;pressure;altitude;pressure_sealevel;temperature;humidity
80892;BME280;70343;51.530;5.050;2023-08-08T00:00:37;101481.19;;;14.65;89.18
80892;BME280;70343;51.530;5.050;2023-08-08T00:03:03;101489.06;;;14.65;89.86
80892;BME280;70343;51.530;5.050;2023-08-08T00:05:29;101485.22;;;14.67;89.35
80892;BME280;70343;51.530;5.050;2023-08-08T00:07:54;101472.13;;;14.74;89.06
80892;BME280;70343;51.530;5.050;2023-08-08T00:10:20;101470.50;;;14.79;89.26
80892;BME280;70343;51.530;5.050;2023-08-08T00:12:45;101477.19;;;14.82;89.75
80892;BME280;70343;51.530;5.050;2023-08-08T00:15:11;101477.78;;;14.77;90.16
80892;BME280;70343;51.530;5.050;2023-08-08T00:17:36;101475.34;;;14.82;89.38
80892;BME280;70343;51.530;5.050;2023-08-08T00:20:02;101470.91;;;14.83;89.53
80892;BME280;70343;51.530;5.050;2023-08-08T00:22:29;101464.84;;;14.82;89.49
80892;BME280;70343;51.530;5.050;2023-08-08T00:24:54;101467.69;;;14.87;88.71
80892;BME280;70343;51.530;5.050;2023-08-08T00:27:20;101475.16;;;14.90;89.45
80892;BME280;70343;51.530;5.050;2023-08-08T00:29:46;101480.63;;;14.89;89.30
80892;BME280;70343;51.530;5.050;2023-08-08T00:32:11;101469.91;;;14.84;89.36
80892;BME280;70343;51.530;5.050;2023-08-08T00:34:37;101462.84;;;14.91;89.47
80892;BME280;70343;51.530;5.050;2023-08-08T00:37:03;101468.28;;;14.83;89.77
80892;BME280;70343;51.530;5.050;2023-08-08T00:39:28;101468.91;;;14.91;89.39
80892;BME280;70343;51.530;5.050;2023-08-08T00:41:54;101469.31;;;14.95;89.24
80892;BME280;70343;51.530;5.050;2023-08-08T00:44:19;101463.44;;;14.86;89.73
80892;BME280;70343;51.530;5.050;2023-08-08T00:46:45;101472.53;;;14.90;89.55
80892;BME280;70343;51.530;5.050;2023-08-08T00:49:10;101465.09;;;14.94;89.56
80892;BME280;70343;51.530;5.050;2023-08-08T00:51:36;101460.81;;;14.93;90.05
80892;BME280;70343;51.530;5.050;2023-08-08T00:54:03;101453.56;;;14.95;89.89
80892;BME280;70343;51.530;5.050;2023-08-08T00:56:30;101458.81;;;15.01;88.87
80892;BME280;70343;51.530;5.050;2023-08-08T00:58:56;101461.84;;;14.92;90.25
80892;BME280;70343;51.530;5.050;2023-08-08T01:01:21;101460.41;;;14.89;90.48
80892;BME280;70343;51.530;5.050;2023-08-08T01:03:47;101455.38;;;14.94;89.33
80892;BME280;70343;51.530;5.050;2023-08-08T01:06:31;101451.75;;;14.95;89.55
80892;BME280;70343;51.530;5.050;2023-08-08T01:09:06;101455.16;;;14.83;90.20
80892;BME280;70343;51.530;5.050;2023-08-08T01:11:34;101443.44;;;14.79;90.23
80892;BME280;70343;51.530;5.050;2023-08-08T01:14:02;101449.09;;;14.76;91.27
80892;BME280;70343;51.530;5.050;2023-08-08T01:16:29;101445.25;;;14.85;90.48
80892;BME280;70343;51.530;5.050;2023-08-08T01:18:56;101450.50;;;14.85;90.24
80892;BME280;70343;51.530;5.050;2023-08-08T01:21:25;101448.91;;;14.84;90.69
80892;BME280;70343;51.530;5.050;2023-08-08T01:24:00;101445.66;;;14.75;90.78
80892;BME280;70343;51.530;5.050;2023-08-08T01:26:31;101449.09;;;14.82;91.01
80892;BME280;70343;51.530;5.050;2023-08-08T01:28:58;101449.09;;;14.76;91.41
80892;BME280;70343;51.530;5.050;2023-08-08T01:31:23;101440.41;;;14.75;91.46
80892;BME280;70343;51.530;5.050;2023-08-08T01:33:49;101441.00;;;14.71;91.76
80892;BME280;70343;51.530;5.050;2023-08-08T01:36:26;101432.94;;;14.53;92.65
80892;BME280;70343;51.530;5.050;2023-08-08T01:38:55;101431.28;;;14.52;92.31
80892;BME280;70343;51.530;5.050;2023-08-08T01:41:25;101431.28;;;14.52;92.45
80892;BME280;70343;51.530;5.050;2023-08-08T01:43:52;101433.34;;;14.56;91.86
80892;BME280;70343;51.530;5.050;2023-08-08T01:46:18;101433.72;;;14.47;92.28
80892;BME280;70343;51.530;5.050;2023-08-08T01:48:45;101428.66;;;14.39;93.28
80892;BME280;70343;51.530;5.050;2023-08-08T01:51:11;101432.69;;;14.35;92.81
80892;BME280;70343;51.530;5.050;2023-08-08T01:53:37;101426.81;;;14.33;93.30
80892;BME280;70343;51.530;5.050;2023-08-08T01:56:02;101440.34;;;14.36;92.99
80892;BME280;70343;51.530;5.050;2023-08-08T01:58:28;101438.53;;;14.37;93.34
80892;BME280;70343;51.530;5.050;2023-08-08T02:00:53;101433.91;;;14.39;95.67
80892;BME280;70343;51.530;5.050;2023-08-08T02:03:19;101433.91;;;14.39;94.37
80892;BME280;70343;51.530;5.050;2023-08-08T02:05:44;101424.03;;;14.41;93.65
80892;BME280;70343;51.530;5.050;2023-08-08T02:08:10;101428.69;;;14.45;94.65
80892;BME280;70343;51.530;5.050;2023-08-08T02:10:35;101432.50;;;14.49;94.06
80892;BME280;70343;51.530;5.050;2023-08-08T02:13:01;101423.03;;;14.55;94.64
80892;BME280;70343;51.530;5.050;2023-08-08T02:15:27;101424.25;;;14.52;94.25
80892;BME280;70343;51.530;5.050;2023-08-08T02:17:52;101426.06;;;14.65;94.40
80892;BME280;70343;51.530;5.050;2023-08-08T02:20:18;101418.19;;;14.65;94.53
80892;BME280;70343;51.530;5.050;2023-08-08T02:22:44;101422.44;;;14.66;95.53
80892;BME280;70343;51.530;5.050;2023-08-08T02:25:09;101424.44;;;14.64;95.11
80892;BME280;70343;51.530;5.050;2023-08-08T02:27:35;101421.41;;;14.67;95.13
80892;BME280;70343;51.530;5.050;2023-08-08T02:30:00;101415.97;;;14.68;95.55
80892;BME280;70343;51.530;5.050;2023-08-08T02:32:26;101416.97;;;14.67;95.75
80892;BME280;70343;51.530;5.050;2023-08-08T02:34:53;101404.47;;;14.63;97.63
80892;BME280;70343;51.530;5.050;2023-08-08T02:37:18;101405.47;;;14.62;96.95
80892;BME280;70343;51.530;5.050;2023-08-08T02:39:44;101408.31;;;14.60;96.68
80892;BME280;70343;51.530;5.050;2023-08-08T02:42:10;101409.72;;;14.56;96.56
80892;BME280;70343;51.530;5.050;2023-08-08T02:44:36;101400.41;;;14.54;97.08
80892;BME280;70343;51.530;5.050;2023-08-08T02:47:01;101397.41;;;14.57;96.63
80892;BME280;70343;51.530;5.050;2023-08-08T02:49:27;101402.63;;;14.44;97.66
80892;BME280;70343;51.530;5.050;2023-08-08T02:51:54;101403.84;;;14.48;97.65
80892;BME280;70343;51.530;5.050;2023-08-08T02:54:19;101401.22;;;14.48;98.00
80892;BME280;70343;51.530;5.050;2023-08-08T02:56:45;101398.00;;;14.52;97.95
80892;BME280;70343;51.530;5.050;2023-08-08T02:59:11;101394.56;;;14.58;97.11
80892;BME280;70343;51.530;5.050;2023-08-08T03:01:37;101392.94;;;14.57;97.05
80892;BME280;70343;51.530;5.050;2023-08-08T03:04:08;101394.56;;;14.58;97.36
80892;BME280;70343;51.530;5.050;2023-08-08T03:06:34;101395.16;;;14.54;98.10
80892;BME280;70343;51.530;5.050;2023-08-08T03:09:00;101393.94;;;14.50;98.65
80892;BME280;70343;51.530;5.050;2023-08-08T03:11:26;101387.28;;;14.54;97.22
80892;BME280;70343;51.530;5.050;2023-08-08T03:13:51;101387.50;;;14.52;98.28
80892;BME280;70343;51.530;5.050;2023-08-08T03:16:18;101388.72;;;14.43;100.00
80892;BME280;70343;51.530;5.050;2023-08-08T03:18:44;101387.50;;;14.39;100.00
80892;BME280;70343;51.530;5.050;2023-08-08T03:21:09;101388.50;;;14.45;99.45
80892;BME280;70343;51.530;5.050;2023-08-08T03:23:35;101391.94;;;14.45;99.62
80892;BME280;70343;51.530;5.050;2023-08-08T03:26:00;101393.75;;;14.45;99.11
80892;BME280;70343;51.530;5.050;2023-08-08T03:28:26;101391.53;;;14.35;99.60
80892;BME280;70343;51.530;5.050;2023-08-08T03:30:53;101386.88;;;14.37;99.06
80892;BME280;70343;51.530;5.050;2023-08-08T03:33:20;101392.53;;;14.34;99.00
80892;BME280;70343;51.530;5.050;2023-08-08T03:35:46;101383.63;;;14.28;99.29
80892;BME280;70343;51.530;5.050;2023-08-08T03:38:11;101374.31;;;14.19;99.78
80892;BME280;70343;51.530;5.050;2023-08-08T03:40:37;101383.59;;;14.15;99.26
80892;BME280;70343;51.530;5.050;2023-08-08T03:43:03;101392.84;;;14.11;100.00
80892;BME280;70343;51.530;5.050;2023-08-08T03:45:29;101384.38;;;14.09;99.89
80892;BME280;70343;51.530;5.050;2023-08-08T03:47:55;101375.69;;;14.09;100.00
80892;BME280;70343;51.530;5.050;2023-08-08T03:50:20;101372.66;;;14.05;100.00
80892;BME280;70343;51.530;5.050;2023-08-08T03:52:46;101367.41;;;14.05;100.00
80892;BME280;70343;51.530;5.050;2023-08-08T03:55:11;101376.28;;;14.04;100.00
80892;BME280;70343;51.530;5.050;2023-08-08T03:57:38;101381.53;;;14.04;100.00
80892;BME280;70343;51.530;5.050;2023-08-08T04:00:04;101382.13;;;14.00;100.00
80892;BME280;70343;51.530;5.050;2023-08-08T04:02:38;101387.34;;;13.93;100.00
80892;BME280;70343;51.530;5.050;2023-08-08T04:05:04;101382.50;;;13.90;100.00
80892;BME280;70343;51.530;5.050;2023-08-08T04:07:30;101385.13;;;13.90;100.00
80892;BME280;70343;51.530;5.050;2023-08-08T04:09:55;101384.91;;;13.85;100.00
80892;BME280;70343;51.530;5.050;2023-08-08T04:12:21;101383.09;;;13.86;100.00
80892;BME280;70343;51.530;5.050;2023-08-08T04:14:46;101381.66;;;13.83;100.00
80892;BME280;70343;51.530;5.050;2023-08-08T04:17:12;101380.69;;;13.84;100.00
80892;BME280;70343;51.530;5.050;2023-08-08T04:19:38;101379.03;;;13.83;100.00
80892;BME280;70343;51.530;5.050;2023-08-08T04:22:03;101379.63;;;13.72;100.00
80892;BME280;70343;51.530;5.050;2023-08-08T04:24:29;101376.59;;;13.75;100.00
80892;BME280;70343;51.530;5.050;2023-08-08T04:26:54;101372.94;;;13.70;100.00
80892;BME280;70343;51.530;5.050;2023-08-08T04:29:20;101371.34;;;13.75;100.00
80892;BME280;70343;51.530;5.050;2023-08-08T04:31:45;101375.97;;;13.73;100.00
80892;BME280;70343;51.530;5.050;2023-08-08T04:34:11;101377.41;;;13.76;100.00
80892;BME280;70343;51.530;5.050;2023-08-08T04:36:36;101379.81;;;13.77;100.00
80892;BME280;70343;51.530;5.050;2023-08-08T04:39:02;101387.50;;;13.79;100.00
80892;BME280;70343;51.530;5.050;2023-08-08T04:41:27;101384.84;;;13.72;100.00
80892;BME280;70343;51.530;5.050;2023-08-08T04:43:53;101376.22;;;13.78;100.00
80892;BME280;70343;51.530;5.050;2023-08-08T04:46:18;101381.47;;;13.78;100.00
80892;BME280;70343;51.530;5.050;2023-08-08T04:48:44;101382.59;;;13.69;100.00
80892;BME280;70343;51.530;5.050;2023-08-08T04:51:09;101379.03;;;13.77;100.00
80892;BME280;70343;51.530;5.050;2023-08-08T04:53:35;101380.06;;;13.82;100.00
80892;BME280;70343;51.530;5.050;2023-08-08T04:56:00;101385.13;;;13.90;99.89
80892;BME280;70343;51.530;5.050;2023-08-08T04:58:26;101381.28;;;13.86;100.00
80892;BME280;70343;51.530;5.050;2023-08-08T05:00:51;101387.94;;;13.82;100.00
80892;BME280;70343;51.530;5.050;2023-08-08T05:03:18;101381.28;;;13.86;100.00
80892;BME280;70343;51.530;5.050;2023-08-08T05:05:43;101382.91;;;13.94;100.00
80892;BME280;70343;51.530;5.050;2023-08-08T05:08:14;101387.59;;;13.98;100.00
80892;BME280;70343;51.530;5.050;2023-08-08T05:10:40;101385.38;;;14.08;99.73
80892;BME280;70343;51.530;5.050;2023-08-08T05:13:05;101382.97;;;14.20;99.46
80892;BME280;70343;51.530;5.050;2023-08-08T05:15:31;101372.72;;;14.25;99.29
80892;BME280;70343;51.530;5.050;2023-08-08T05:17:57;101374.34;;;14.33;99.50
80892;BME280;70343;51.530;5.050;2023-08-08T05:20:23;101379.19;;;14.29;99.35
80892;BME280;70343;51.530;5.050;2023-08-08T05:22:48;101381.63;;;14.31;99.72
80892;BME280;70343;51.530;5.050;2023-08-08T05:25:14;101380.03;;;14.43;99.37
80892;BME280;70343;51.530;5.050;2023-08-08T05:27:39;101381.63;;;14.31;100.00
80892;BME280;70343;51.530;5.050;2023-08-08T05:30:05;101386.50;;;14.60;98.93
80892;BME280;70343;51.530;5.050;2023-08-08T05:32:31;101393.34;;;14.67;98.72
80892;BME280;70343;51.530;5.050;2023-08-08T05:34:57;101391.53;;;14.68;98.63
80892;BME280;70343;51.530;5.050;2023-08-08T05:37:23;101399.81;;;14.71;98.51
80892;BME280;70343;51.530;5.050;2023-08-08T05:39:49;101392.16;;;14.70;97.98
80892;BME280;70343;51.530;5.050;2023-08-08T05:42:14;101391.34;;;14.69;98.31
80892;BME280;70343;51.530;5.050;2023-08-08T05:44:40;101396.38;;;14.71;98.44
80892;BME280;70343;51.530;5.050;2023-08-08T05:47:09;101393.91;;;15.28;97.20
80892;BME280;70343;51.530;5.050;2023-08-08T05:49:35;101393.63;;;16.07;93.01
80892;BME280;70343;51.530;5.050;2023-08-08T05:52:01;101386.28;;;16.53;91.56
80892;BME280;70343;51.530;5.050;2023-08-08T05:54:26;101391.25;;;17.28;88.94
80892;BME280;70343;51.530;5.050;2023-08-08T05:56:52;101383.53;;;16.90;88.76
80892;BME280;70343;51.530;5.050;2023-08-08T05:59:18;101391.44;;;16.66;88.80
80892;BME280;70343;51.530;5.050;2023-08-08T06:01:44;101396.97;;;15.82;92.91
80892;BME280;70343;51.530;5.050;2023-08-08T06:04:09;101389.47;;;15.86;93.88
80892;BME280;70343;51.530;5.050;2023-08-08T06:06:35;101395.09;;;15.96;93.32
80892;BME280;70343;51.530;5.050;2023-08-08T06:09:01;101395.91;;;16.90;90.45
80892;BME280;70343;51.530;5.050;2023-08-08T06:11:26;101399.78;;;17.85;87.16
80892;BME280;70343;51.530;5.050;2023-08-08T06:13:51;101402.00;;;18.29;82.05
80892;BME280;70343;51.530;5.050;2023-08-08T06:16:17;101391.91;;;19.13;82.45
80892;BME280;70343;51.530;5.050;2023-08-08T06:18:43;101402.00;;;20.19;76.65
80892;BME280;70343;51.530;5.050;2023-08-08T06:21:09;101407.16;;;21.08;74.93
80892;BME280;70343;51.530;5.050;2023-08-08T06:23:35;101403.66;;;20.86;72.45
80892;BME280;70343;51.530;5.050;2023-08-08T06:26:00;101411.22;;;20.61;74.85
80892;BME280;70343;51.530;5.050;2023-08-08T06:28:25;101403.97;;;20.57;74.84
80892;BME280;70343;51.530;5.050;2023-08-08T06:30:51;101410.13;;;20.01;76.77
80892;BME280;70343;51.530;5.050;2023-08-08T06:33:17;101408.16;;;20.69;75.30
80892;BME280;70343;51.530;5.050;2023-08-08T06:35:42;101406.72;;;21.33;73.38
80892;BME280;70343;51.530;5.050;2023-08-08T06:38:07;101412.78;;;21.72;69.77
80892;BME280;70343;51.530;5.050;2023-08-08T06:40:34;101412.72;;;21.67;71.73
80892;BME280;70343;51.530;5.050;2023-08-08T06:42:59;101410.84;;;22.10;70.01
80892;BME280;70343;51.530;5.050;2023-08-08T06:45:25;101412.06;;;22.56;68.74
80892;BME280;70343;51.530;5.050;2023-08-08T06:47:50;101413.34;;;21.74;70.32
80892;BME280;70343;51.530;5.050;2023-08-08T06:50:16;101409.53;;;22.13;69.97
80892;BME280;70343;51.530;5.050;2023-08-08T06:52:42;101399.50;;;21.50;69.62
80892;BME280;70343;51.530;5.050;2023-08-08T06:55:08;101406.00;;;21.38;69.02
80892;BME280;70343;51.530;5.050;2023-08-08T06:57:34;101402.19;;;20.95;72.45
80892;BME280;70343;51.530;5.050;2023-08-08T07:00:00;101405.03;;;20.11;74.75
80892;BME280;70343;51.530;5.050;2023-08-08T07:02:26;101408.34;;;19.38;77.29
80892;BME280;70343;51.530;5.050;2023-08-08T07:04:51;101401.53;;;19.08;78.43
80892;BME280;70343;51.530;5.050;2023-08-08T07:07:17;101410.38;;;19.88;77.45
80892;BME280;70343;51.530;5.050;2023-08-08T07:09:43;101406.13;;;20.15;75.73
80892;BME280;70343;51.530;5.050;2023-08-08T07:12:09;101416.59;;;19.53;76.34
80892;BME280;70343;51.530;5.050;2023-08-08T07:14:34;101413.69;;;19.67;77.67
80892;BME280;70343;51.530;5.050;2023-08-08T07:17:00;101405.78;;;19.55;77.03
80892;BME280;70343;51.530;5.050;2023-08-08T07:19:28;101408.22;;;19.10;79.46
80892;BME280;70343;51.530;5.050;2023-08-08T07:21:53;101407.63;;;18.74;80.36
80892;BME280;70343;51.530;5.050;2023-08-08T07:24:19;101407.88;;;18.72;80.67
80892;BME280;70343;51.530;5.050;2023-08-08T07:26:45;101405.78;;;19.32;78.73
80892;BME280;70343;51.530;5.050;2023-08-08T07:29:11;101408.00;;;19.46;79.11
80892;BME280;70343;51.530;5.050;2023-08-08T07:31:36;101402.69;;;19.35;79.00
80892;BME280;70343;51.530;5.050;2023-08-08T07:34:02;101402.47;;;19.25;78.58
80892;BME280;70343;51.530;5.050;2023-08-08T07:36:27;101399.81;;;19.25;77.90
80892;BME280;70343;51.530;5.050;2023-08-08T07:38:53;101405.34;;;19.12;79.11
80892;BME280;70343;51.530;5.050;2023-08-08T07:41:25;101408.09;;;19.28;79.55
80892;BME280;70343;51.530;5.050;2023-08-08T07:43:51;101397.13;;;19.60;78.70
80892;BME280;70343;51.530;5.050;2023-08-08T07:46:17;101400.56;;;19.72;78.16
80892;BME280;70343;51.530;5.050;2023-08-08T07:48:42;101398.81;;;20.05;77.71
80892;BME280;70343;51.530;5.050;2023-08-08T07:51:08;101400.38;;;20.18;76.78
80892;BME280;70343;51.530;5.050;2023-08-08T07:53:33;101418.00;;;20.12;77.78
80892;BME280;70343;51.530;5.050;2023-08-08T07:55:59;101407.66;;;19.83;75.33
80892;BME280;70343;51.530;5.050;2023-08-08T07:58:24;101404.97;;;19.54;77.73
80892;BME280;70343;51.530;5.050;2023-08-08T08:00:52;101410.38;;;19.88;78.21
80892;BME280;70343;51.530;5.050;2023-08-08T08:03:19;101410.63;;;19.58;77.63
80892;BME280;70343;51.530;5.050;2023-08-08T08:05:45;101408.78;;;19.47;76.99
80892;BME280;70343;51.530;5.050;2023-08-08T08:08:10;101412.91;;;19.43;77.61
80892;BME280;70343;51.530;5.050;2023-08-08T08:10:36;101417.53;;;19.36;78.03
80892;BME280;70343;51.530;5.050;2023-08-08T08:13:01;101408.09;;;19.40;77.89
80892;BME280;70343;51.530;5.050;2023-08-08T08:15:27;101417.63;;;19.06;78.00
80892;BME280;70343;51.530;5.050;2023-08-08T08:17:53;101408.53;;;19.25;78.59
80892;BME280;70343;51.530;5.050;2023-08-08T08:20:19;101408.53;;;19.25;77.95
80892;BME280;70343;51.530;5.050;2023-08-08T08:22:45;101405.09;;;19.48;75.39
80892;BME280;70343;51.530;5.050;2023-08-08T08:25:11;101412.50;;;19.34;77.18
80892;BME280;70343;51.530;5.050;2023-08-08T08:27:37;101407.28;;;19.39;75.45
80892;BME280;70343;51.530;5.050;2023-08-08T08:30:06;101408.34;;;19.27;76.41
80892;BME280;70343;51.530;5.050;2023-08-08T08:32:34;101405.91;;;19.14;76.50
80892;BME280;70343;51.530;5.050;2023-08-08T08:35:01;101410.19;;;18.92;75.82
80892;BME280;70343;51.530;5.050;2023-08-08T08:37:28;101404.88;;;18.80;77.36
80892;BME280;70343;51.530;5.050;2023-08-08T08:39:53;101407.72;;;18.67;77.24
80892;BME280;70343;51.530;5.050;2023-08-08T08:42:22;101409.09;;;18.58;78.39
80892;BME280;70343;51.530;5.050;2023-08-08T08:44:49;101409.81;;;18.35;78.06
80892;BME280;70343;51.530;5.050;2023-08-08T08:47:17;101422.59;;;18.09;78.86
80892;BME280;70343;51.530;5.050;2023-08-08T08:49:45;101418.19;;;18.03;78.68
80892;BME280;70343;51.530;5.050;2023-08-08T08:52:11;101414.84;;;17.96;79.17
80892;BME280;70343;51.530;5.050;2023-08-08T08:54:37;101416.50;;;17.78;79.31
80892;BME280;70343;51.530;5.050;2023-08-08T08:57:03;101423.06;;;17.88;79.38
80892;BME280;70343;51.530;5.050;2023-08-08T08:59:29;101426.16;;;17.66;80.61
80892;BME280;70343;51.530;5.050;2023-08-08T09:01:56;101418.38;;;17.71;79.57
80892;BME280;70343;51.530;5.050;2023-08-08T09:04:22;101421.44;;;17.87;79.43
80892;BME280;70343;51.530;5.050;2023-08-08T09:06:49;101424.75;;;18.00;79.47
80892;BME280;70343;51.530;5.050;2023-08-08T09:09:15;101426.03;;;18.09;78.45
80892;BME280;70343;51.530;5.050;2023-08-08T09:11:52;101429.88;;;18.43;77.84
80892;BME280;70343;51.530;5.050;2023-08-08T09:14:25;101418.06;;;18.68;77.48
80892;BME280;70343;51.530;5.050;2023-08-08T09:16:52;101420.75;;;18.80;77.72
80892;BME280;70343;51.530;5.050;2023-08-08T09:19:22;101419.22;;;18.84;76.34
80892;BME280;70343;51.530;5.050;2023-08-08T09:21:48;101421.31;;;18.82;77.04
80892;BME280;70343;51.530;5.050;2023-08-08T09:24:14;101421.44;;;18.99;75.87
80892;BME280;70343;51.530;5.050;2023-08-08T09:26:41;101421.34;;;19.05;74.29
80892;BME280;70343;51.530;5.050;2023-08-08T09:29:07;101412.34;;;19.06;75.33
80892;BME280;70343;51.530;5.050;2023-08-08T09:31:34;101433.84;;;19.10;75.33
80892;BME280;70343;51.530;5.050;2023-08-08T09:34:01;101427.03;;;19.72;73.76
80892;BME280;70343;51.530;5.050;2023-08-08T09:36:27;101422.16;;;19.80;72.67
80892;BME280;70343;51.530;5.050;2023-08-08T09:38:53;101420.91;;;19.71;71.10
80892;BME280;70343;51.530;5.050;2023-08-08T09:41:21;101435.53;;;19.74;72.18
80892;BME280;70343;51.530;5.050;2023-08-08T09:43:51;101420.84;;;19.94;72.59
80892;BME280;70343;51.530;5.050;2023-08-08T09:46:20;101416.41;;;19.83;70.92
80892;BME280;70343;51.530;5.050;2023-08-08T09:48:46;101412.66;;;19.68;71.96
80892;BME280;70343;51.530;5.050;2023-08-08T09:51:12;101418.31;;;19.88;71.88
80892;BME280;70343;51.530;5.050;2023-08-08T09:53:39;101420.59;;;19.68;69.51
80892;BME280;70343;51.530;5.050;2023-08-08T09:56:06;101417.09;;;19.79;68.07
80892;BME280;70343;51.530;5.050;2023-08-08T09:58:32;101414.28;;;19.97;69.57
80892;BME280;70343;51.530;5.050;2023-08-08T10:00:57;101420.34;;;19.97;69.86
80892;BME280;70343;51.530;5.050;2023-08-08T10:03:23;101426.94;;;19.95;69.72
80892;BME280;70343;51.530;5.050;2023-08-08T10:05:49;101409.97;;;20.07;69.20
80892;BME280;70343;51.530;5.050;2023-08-08T10:08:15;101414.38;;;19.74;68.37
80892;BME280;70343;51.530;5.050;2023-08-08T10:10:44;101420.31;;;19.81;68.91
80892;BME280;70343;51.530;5.050;2023-08-08T10:13:18;101413.72;;;19.55;69.18
80892;BME280;70343;51.530;5.050;2023-08-08T10:15:44;101432.72;;;19.29;70.54
80892;BME280;70343;51.530;5.050;2023-08-08T10:18:09;101430.84;;;18.95;72.36
80892;BME280;70343;51.530;5.050;2023-08-08T10:20:38;101435.88;;;18.61;74.91
80892;BME280;70343;51.530;5.050;2023-08-08T10:23:03;101433.00;;;18.63;74.97
80892;BME280;70343;51.530;5.050;2023-08-08T10:25:30;101430.75;;;18.78;73.88
80892;BME280;70343;51.530;5.050;2023-08-08T10:28:04;101425.34;;;19.08;72.78
80892;BME280;70343;51.530;5.050;2023-08-08T10:30:47;101423.97;;;19.80;72.66
80892;BME280;70343;51.530;5.050;2023-08-08T10:33:24;101425.16;;;20.12;70.38
80892;BME280;70343;51.530;5.050;2023-08-08T10:38:22;101419.31;;;20.38;70.33
80892;BME280;70343;51.530;5.050;2023-08-08T10:40:56;101421.38;;;20.36;69.13
80892;BME280;70343;51.530;5.050;2023-08-08T10:43:26;101425.94;;;20.40;68.89
80892;BME280;70343;51.530;5.050;2023-08-08T10:45:52;101428.63;;;19.73;68.48
80892;BME280;70343;51.530;5.050;2023-08-08T10:48:18;101434.34;;;20.09;69.40
80892;BME280;70343;51.530;5.050;2023-08-08T10:50:46;101414.94;;;20.04;67.78
80892;BME280;70343;51.530;5.050;2023-08-08T10:53:12;101416.16;;;20.24;68.02
80892;BME280;70343;51.530;5.050;2023-08-08T10:55:37;101410.78;;;20.08;69.76
80892;BME280;70343;51.530;5.050;2023-08-08T11:00:30;101420.59;;;19.96;68.13
80892;BME280;70343;51.530;5.050;2023-08-08T11:02:57;101409.84;;;19.74;68.44
80892;BME280;70343;51.530;5.050;2023-08-08T11:05:24;101410.47;;;19.65;69.29
80892;BME280;70343;51.530;5.050;2023-08-08T11:07:50;101408.88;;;19.17;68.89
80892;BME280;70343;51.530;5.050;2023-08-08T11:10:16;101413.03;;;18.90;70.43
80892;BME280;70343;51.530;5.050;2023-08-08T11:12:41;101403.41;;;19.07;71.04
80892;BME280;70343;51.530;5.050;2023-08-08T11:15:08;101419.94;;;19.14;70.05
80892;BME280;70343;51.530;5.050;2023-08-08T11:17:34;101412.75;;;19.73;70.46
80892;BME280;70343;51.530;5.050;2023-08-08T11:20:00;101407.47;;;20.01;67.58
80892;BME280;70343;51.530;5.050;2023-08-08T11:22:26;101402.19;;;20.29;66.50
80892;BME280;70343;51.530;5.050;2023-08-08T11:24:52;101401.88;;;19.86;67.67
80892;BME280;70343;51.530;5.050;2023-08-08T11:27:18;101395.44;;;19.82;67.11
80892;BME280;70343;51.530;5.050;2023-08-08T11:29:50;101402.56;;;19.93;67.73
80892;BME280;70343;51.530;5.050;2023-08-08T11:32:16;101408.31;;;19.90;67.29
80892;BME280;70343;51.530;5.050;2023-08-08T11:34:42;101401.28;;;19.95;66.67
80892;BME280;70343;51.530;5.050;2023-08-08T11:37:08;101404.25;;;20.27;66.44
80892;BME280;70343;51.530;5.050;2023-08-08T11:39:36;101398.63;;;20.23;65.26
80892;BME280;70343;51.530;5.050;2023-08-08T11:42:02;101406.88;;;20.55;64.61
80892;BME280;70343;51.530;5.050;2023-08-08T11:44:28;101414.06;;;20.26;63.11
80892;BME280;70343;51.530;5.050;2023-08-08T11:46:54;101404.69;;;19.79;64.48
80892;BME280;70343;51.530;5.050;2023-08-08T11:49:19;101407.66;;;19.83;63.07
80892;BME280;70343;51.530;5.050;2023-08-08T11:51:45;101406.78;;;19.94;63.69
80892;BME280;70343;51.530;5.050;2023-08-08T11:54:11;101410.94;;;20.46;64.37
80892;BME280;70343;51.530;5.050;2023-08-08T11:56:38;101409.72;;;20.37;63.99
80892;BME280;70343;51.530;5.050;2023-08-08T11:59:04;101403.97;;;20.12;62.11
80892;BME280;70343;51.530;5.050;2023-08-08T12:01:31;101405.88;;;20.28;62.92
80892;BME280;70343;51.530;5.050;2023-08-08T12:03:56;101406.34;;;19.97;61.39
80892;BME280;70343;51.530;5.050;2023-08-08T12:06:28;101394.63;;;20.21;61.59
80892;BME280;70343;51.530;5.050;2023-08-08T12:08:55;101393.06;;;20.53;61.54
80892;BME280;70343;51.530;5.050;2023-08-08T12:11:21;101401.56;;;20.88;61.48
80892;BME280;70343;51.530;5.050;2023-08-08T12:13:46;101397.63;;;20.91;59.40
80892;BME280;70343;51.530;5.050;2023-08-08T12:16:13;101394.97;;;21.07;57.04
80892;BME280;70343;51.530;5.050;2023-08-08T12:18:40;101403.78;;;21.13;58.38
80892;BME280;70343;51.530;5.050;2023-08-08T12:21:09;101399.22;;;21.47;59.18
80892;BME280;70343;51.530;5.050;2023-08-08T12:23:35;101387.91;;;20.96;58.40
80892;BME280;70343;51.530;5.050;2023-08-08T12:26:05;101394.69;;;21.25;60.04
80892;BME280;70343;51.530;5.050;2023-08-08T12:28:31;101390.25;;;21.31;58.89
80892;BME280;70343;51.530;5.050;2023-08-08T12:30:57;101391.97;;;21.42;58.91
80892;BME280;70343;51.530;5.050;2023-08-08T12:33:22;101396.59;;;21.52;58.19
80892;BME280;70343;51.530;5.050;2023-08-08T12:35:48;101394.16;;;21.67;58.53
80892;BME280;70343;51.530;5.050;2023-08-08T12:38:14;101390.31;;;21.58;58.02
80892;BME280;70343;51.530;5.050;2023-08-08T12:40:40;101391.22;;;21.25;58.97
80892;BME280;70343;51.530;5.050;2023-08-08T12:43:06;101391.06;;;21.32;59.91
80892;BME280;70343;51.530;5.050;2023-08-08T12:45:31;101388.03;;;21.66;59.43
80892;BME280;70343;51.530;5.050;2023-08-08T12:47:57;101388.34;;;21.70;58.67